createdAt,value
2016-05-05T00:00:10.383Z,1019.45
2016-05-05T00:01:10.370Z,1019.44
2016-05-05T00:02:10.357Z,1019.44
2016-05-05T00:03:10.328Z,1019.41
2016-05-05T00:04:10.315Z,1019.43
2016-05-05T00:05:10.302Z,1019.44
2016-05-05T00:06:10.289Z,1019.44
2016-05-05T00:07:10.277Z,1019.44
2016-05-05T00:08:10.263Z,1019.39
2016-05-05T00:09:10.236Z,1019.44
2016-05-05T00:10:10.222Z,1019.36
2016-05-05T00:11:10.209Z,1019.41
2016-05-05T00:12:10.180Z,1019.39
2016-05-05T00:13:10.168Z,1019.39
2016-05-05T00:14:10.155Z,1019.4
2016-05-05T00:15:10.141Z,1019.4
2016-05-05T00:16:10.129Z,1019.41
2016-05-05T00:17:10.115Z,1019.45
2016-05-05T00:18:10.088Z,1019.44
2016-05-05T00:19:10.074Z,1019.47
2016-05-05T00:20:10.062Z,1019.47
2016-05-05T00:21:10.049Z,1019.42
2016-05-05T00:22:10.035Z,1019.42
2016-05-05T00:23:10.007Z,1019.41
2016-05-05T00:24:10.010Z,1019.44
2016-05-05T00:25:09.981Z,1019.43
2016-05-05T00:26:09.968Z,1019.41
2016-05-05T00:27:09.956Z,1019.4
2016-05-05T00:28:09.926Z,1019.43
2016-05-05T00:29:09.914Z,1019.39
2016-05-05T00:30:09.900Z,1019.41
2016-05-05T00:31:10.092Z,1019.39
2016-05-05T00:32:09.875Z,1019.38
2016-05-05T00:33:09.846Z,1019.37
2016-05-05T00:34:09.834Z,1019.33
2016-05-05T00:35:09.820Z,1019.35
2016-05-05T00:36:09.808Z,1019.34
2016-05-05T00:37:09.795Z,1019.37
2016-05-05T00:38:09.766Z,1019.34
2016-05-05T00:39:09.753Z,1019.36
2016-05-05T00:40:09.740Z,1019.36
2016-05-05T00:41:09.727Z,1019.32
2016-05-05T00:42:09.714Z,1019.35
2016-05-05T00:43:09.702Z,1019.36
2016-05-05T00:44:09.672Z,1019.33
2016-05-05T00:45:09.660Z,1019.34
2016-05-05T00:46:09.646Z,1019.36
2016-05-05T00:47:09.635Z,1019.38
2016-05-05T00:48:09.605Z,1019.32
2016-05-05T00:49:09.593Z,1019.34
2016-05-05T00:50:09.579Z,1019.32
2016-05-05T00:51:09.567Z,1019.31
2016-05-05T00:52:09.538Z,1019.31
2016-05-05T00:53:09.526Z,1019.34
2016-05-05T00:54:09.512Z,1019.34
2016-05-05T00:55:09.499Z,1019.3
2016-05-05T00:56:09.471Z,1019.25
2016-05-05T00:57:09.458Z,1019.3
2016-05-05T00:58:09.446Z,1019.27
2016-05-05T00:59:09.432Z,1019.27
2016-05-05T01:00:09.419Z,1019.27
2016-05-05T01:01:09.406Z,1019.28
2016-05-05T01:02:09.378Z,1019.28
2016-05-05T01:03:09.364Z,1019.28
2016-05-05T01:04:09.351Z,1019.29
2016-05-05T01:05:09.339Z,1019.25
2016-05-05T01:06:09.311Z,1019.28
2016-05-05T01:07:09.297Z,1019.26
2016-05-05T01:08:09.284Z,1019.24
2016-05-05T01:09:09.771Z,1019.26
2016-05-05T01:10:09.242Z,1019.28
2016-05-05T01:11:09.230Z,1019.24
2016-05-05T01:12:09.216Z,1019.21
2016-05-05T01:13:09.204Z,1019.25
2016-05-05T01:14:09.191Z,1019.27
2016-05-05T01:15:09.163Z,1019.24
2016-05-05T01:16:09.150Z,1019.22
2016-05-05T01:17:09.136Z,1019.2
2016-05-05T01:18:09.108Z,1019.17
2016-05-05T01:19:09.095Z,1019.2
2016-05-05T01:20:09.082Z,1019.21
2016-05-05T01:21:09.069Z,1019.21
2016-05-05T01:22:09.057Z,1019.21
2016-05-05T01:23:09.027Z,1019.2
2016-05-05T01:24:09.015Z,1019.23
2016-05-05T01:25:09.002Z,1019.22
2016-05-05T01:26:08.974Z,1019.2
2016-05-05T01:27:08.960Z,1019.24
2016-05-05T01:28:08.948Z,1019.21
2016-05-05T01:29:08.934Z,1019.2
2016-05-05T01:30:08.906Z,1019.2
2016-05-05T01:31:08.893Z,1019.22
2016-05-05T01:32:08.881Z,1019.2
2016-05-05T01:33:08.867Z,1019.22
2016-05-05T01:34:08.854Z,1019.21
2016-05-05T01:35:08.826Z,1019.2
2016-05-05T01:36:08.813Z,1019.21
2016-05-05T01:37:08.800Z,1019.22
2016-05-05T01:38:08.772Z,1019.16
2016-05-05T01:39:08.758Z,1019.13
2016-05-05T01:40:08.745Z,1019.1
2016-05-05T01:41:08.733Z,1019.1
2016-05-05T01:42:08.704Z,1019.06
2016-05-05T01:43:08.691Z,1019.06
2016-05-05T01:44:08.678Z,1019.05
2016-05-05T01:45:08.650Z,1019.06
2016-05-05T01:46:08.636Z,1019.12
2016-05-05T01:47:08.623Z,1019.09
2016-05-05T01:48:08.610Z,1019.09
2016-05-05T01:49:08.582Z,1019.11
2016-05-05T01:50:08.569Z,1019.11
2016-05-05T01:51:08.557Z,1019.06
2016-05-05T01:52:08.564Z,1019.11
2016-05-05T01:53:08.578Z,1019.09
2016-05-05T01:54:08.608Z,1019.11
2016-05-05T01:55:08.637Z,1019.14
2016-05-05T01:56:08.667Z,1019.14
2016-05-05T01:57:08.668Z,1019.16
2016-05-05T01:58:08.670Z,1019.11
2016-05-05T01:59:08.672Z,1019.15
2016-05-05T02:00:08.659Z,1019.14
2016-05-05T02:01:08.662Z,1019.14
2016-05-05T02:02:08.660Z,1019.1
2016-05-05T02:03:08.653Z,1019.09
2016-05-05T02:04:08.629Z,1019.14
2016-05-05T02:05:08.623Z,1019.11
2016-05-05T02:06:08.616Z,1019.12
2016-05-05T02:07:08.606Z,1019.11
2016-05-05T02:08:08.580Z,1019.09
2016-05-05T02:09:08.569Z,1019.11
2016-05-05T02:10:08.558Z,1019.08
2016-05-05T02:11:08.530Z,1019.08
2016-05-05T02:12:08.520Z,1019.14
2016-05-05T02:13:08.508Z,1019.09
2016-05-05T02:14:08.494Z,1019.12
2016-05-05T02:15:08.468Z,1019.1
2016-05-05T02:16:08.455Z,1019.13
2016-05-05T02:17:08.443Z,1019.12
2016-05-05T02:18:08.430Z,1019.15
2016-05-05T02:19:08.402Z,1019.13
2016-05-05T02:20:08.389Z,1019.16
2016-05-05T02:21:08.361Z,1019.15
2016-05-05T02:22:08.350Z,1019.18
2016-05-05T02:23:08.338Z,1019.17
2016-05-05T02:24:08.309Z,1019.11
2016-05-05T02:25:08.296Z,1019.12
2016-05-05T02:26:08.282Z,1019.11
2016-05-05T02:27:08.270Z,1019.18
2016-05-05T02:28:08.242Z,1019.12
2016-05-05T02:29:08.229Z,1019.15
2016-05-05T02:30:08.216Z,1019.15
2016-05-05T02:31:08.390Z,1019.15
2016-05-05T02:32:08.174Z,1019.09
2016-05-05T02:33:08.161Z,1019.14
2016-05-05T02:34:08.148Z,1019.09
2016-05-05T02:35:08.120Z,1019.07
2016-05-05T02:36:08.106Z,1019.12
2016-05-05T02:37:08.094Z,1019.09
2016-05-05T02:38:08.081Z,1019.05
2016-05-05T02:39:08.053Z,1019.05
2016-05-05T02:40:08.040Z,1019.07
2016-05-05T02:41:08.011Z,1019.05
2016-05-05T02:42:07.998Z,1019.06
2016-05-05T02:43:07.985Z,1019.05
2016-05-05T02:44:07.973Z,1019.07
2016-05-05T02:45:07.944Z,1019.11
2016-05-05T02:46:07.930Z,1019.1
2016-05-05T02:47:07.918Z,1019.1
2016-05-05T02:48:07.889Z,1019.11
2016-05-05T02:49:07.876Z,1019.11
2016-05-05T02:50:07.864Z,1019.12
2016-05-05T02:51:07.850Z,1019.1
2016-05-05T02:52:07.822Z,1019.12
2016-05-05T02:53:07.809Z,1019.12
2016-05-05T02:54:07.780Z,1019.13
2016-05-05T02:55:07.768Z,1019.14
2016-05-05T02:56:07.755Z,1019.1
2016-05-05T02:57:07.726Z,1019.12
2016-05-05T02:58:07.713Z,1019.18
2016-05-05T02:59:07.701Z,1019.17
2016-05-05T03:00:07.688Z,1019.19
2016-05-05T03:01:07.659Z,1019.19
2016-05-05T03:02:07.662Z,1019.22
2016-05-05T03:03:07.632Z,1019.22
2016-05-05T03:04:07.604Z,1019.21
2016-05-05T03:05:07.592Z,1019.21
2016-05-05T03:06:07.578Z,1019.21
2016-05-05T03:07:07.565Z,1019.24
2016-05-05T03:08:07.537Z,1019.24
2016-05-05T03:09:07.993Z,1019.22
2016-05-05T03:10:07.511Z,1019.26
2016-05-05T03:11:07.482Z,1019.2
2016-05-05T03:12:07.469Z,1019.23
2016-05-05T03:13:07.456Z,1019.22
2016-05-05T03:14:07.428Z,1019.23
2016-05-05T03:15:07.414Z,1019.23
2016-05-05T03:16:07.402Z,1019.23
2016-05-05T03:17:07.374Z,1019.21
2016-05-05T03:18:07.361Z,1019.19
2016-05-05T03:19:07.348Z,1019.2
2016-05-05T03:20:07.319Z,1019.18
2016-05-05T03:21:07.305Z,1019.2
2016-05-05T03:22:07.293Z,1019.23
2016-05-05T03:23:07.265Z,1019.25
2016-05-05T03:24:07.252Z,1019.21
2016-05-05T03:25:07.239Z,1019.23
2016-05-05T03:26:07.210Z,1019.21
2016-05-05T03:27:07.197Z,1019.19
2016-05-05T03:28:07.184Z,1019.19
2016-05-05T03:29:07.172Z,1019.18
2016-05-05T03:30:07.159Z,1019.18
2016-05-05T03:31:07.129Z,1019.19
2016-05-05T03:32:07.101Z,1019.18
2016-05-05T03:33:07.088Z,1019.15
2016-05-05T03:34:07.076Z,1019.22
2016-05-05T03:35:07.063Z,1019.19
2016-05-05T03:36:07.034Z,1019.19
2016-05-05T03:37:07.021Z,1019.19
2016-05-05T03:38:06.993Z,1019.21
2016-05-05T03:39:07.433Z,1019.18
2016-05-05T03:40:06.982Z,1019.24
2016-05-05T03:41:06.953Z,1019.16
2016-05-05T03:42:06.925Z,1019.19
2016-05-05T03:43:06.912Z,1019.19
2016-05-05T03:44:06.900Z,1019.19
2016-05-05T03:45:06.870Z,1019.18
2016-05-05T03:46:06.858Z,1019.16
2016-05-05T03:47:06.845Z,1019.22
2016-05-05T03:48:06.817Z,1019.17
2016-05-05T03:49:06.803Z,1019.19
2016-05-05T03:50:06.790Z,1019.21
2016-05-05T03:51:06.761Z,1019.2
2016-05-05T03:52:06.749Z,1019.2
2016-05-05T03:53:06.735Z,1019.18
2016-05-05T03:54:06.707Z,1019.15
2016-05-05T03:55:06.694Z,1019.14
2016-05-05T03:56:06.666Z,1019.14
2016-05-05T03:57:06.653Z,1019.18
2016-05-05T03:58:06.640Z,1019.18
2016-05-05T03:59:06.609Z,1019.18
2016-05-05T04:00:06.596Z,1019.2
2016-05-05T04:01:06.582Z,1019.17
2016-05-05T04:02:06.570Z,1019.23
2016-05-05T04:03:06.557Z,1019.18
2016-05-05T04:04:06.528Z,1019.18
2016-05-05T04:05:06.515Z,1019.19
2016-05-05T04:06:06.487Z,1019.16
2016-05-05T04:07:06.474Z,1019.16
2016-05-05T04:08:06.462Z,1019.17
2016-05-05T04:09:06.432Z,1019.2
2016-05-05T04:10:06.420Z,1019.21
2016-05-05T04:11:06.406Z,1019.18
2016-05-05T04:12:06.378Z,1019.22
2016-05-05T04:13:06.365Z,1019.2
2016-05-05T04:14:06.353Z,1019.2
2016-05-05T04:15:06.323Z,1019.16
2016-05-05T04:16:06.311Z,1019.13
2016-05-05T04:17:06.298Z,1019.18
2016-05-05T04:18:06.270Z,1019.15
2016-05-05T04:19:06.256Z,1019.17
2016-05-05T04:20:06.228Z,1019.17
2016-05-05T04:21:06.214Z,1019.21
2016-05-05T04:22:06.202Z,1019.19
2016-05-05T04:23:06.174Z,1019.17
2016-05-05T04:24:06.363Z,1019.17
2016-05-05T04:25:06.147Z,1019.16
2016-05-05T04:26:06.119Z,1019.15
2016-05-05T04:27:06.106Z,1019.15
2016-05-05T04:28:06.094Z,1019.19
2016-05-05T04:29:06.065Z,1019.14
2016-05-05T04:30:06.052Z,1019.14
2016-05-05T04:31:06.038Z,1019.15
2016-05-05T04:32:06.010Z,1019.16
2016-05-05T04:33:05.997Z,1019.14
2016-05-05T04:34:05.968Z,1019.13
2016-05-05T04:35:05.971Z,1019.13
2016-05-05T04:36:05.942Z,1019.11
2016-05-05T04:37:05.930Z,1019.12
2016-05-05T04:38:05.901Z,1019.1
2016-05-05T04:39:05.888Z,1019.11
2016-05-05T04:40:05.876Z,1019.09
2016-05-05T04:41:05.847Z,1019.13
2016-05-05T04:42:05.865Z,1019.13
2016-05-05T04:43:05.821Z,1019.09
2016-05-05T04:44:05.792Z,1019.08
2016-05-05T04:45:05.779Z,1019.07
2016-05-05T04:46:05.767Z,1019.06
2016-05-05T04:47:05.739Z,1019.02
2016-05-05T04:48:05.725Z,1019.05
2016-05-05T04:49:05.711Z,1019.03
2016-05-05T04:50:05.684Z,1019.05
2016-05-05T04:51:05.670Z,1019.11
2016-05-05T04:52:05.658Z,1019.11
2016-05-05T04:53:05.629Z,1019.05
2016-05-05T04:54:05.820Z,1019.1
2016-05-05T04:55:05.603Z,1019.08
2016-05-05T04:56:05.574Z,1019.07
2016-05-05T04:57:05.562Z,1019.06
2016-05-05T04:58:05.549Z,1019.06
2016-05-05T04:59:05.520Z,1019.04
2016-05-05T05:00:05.508Z,1019.11
2016-05-05T05:01:05.494Z,1019.11
2016-05-05T05:02:05.466Z,1019.11
2016-05-05T05:03:05.453Z,1019.1
2016-05-05T05:04:05.440Z,1019.1
2016-05-05T05:05:05.426Z,1019.13
2016-05-05T05:06:05.398Z,1019.11
2016-05-05T05:07:05.386Z,1019.1
2016-05-05T05:08:05.373Z,1019.12
2016-05-05T05:09:05.344Z,1019.12
2016-05-05T05:10:05.331Z,1019.1
2016-05-05T05:11:05.334Z,1019.09
2016-05-05T05:12:05.289Z,1019.09
2016-05-05T05:13:05.277Z,1019.07
2016-05-05T05:14:05.264Z,1019.05
2016-05-05T05:15:05.235Z,1019.07
2016-05-05T05:16:05.223Z,1019.08
2016-05-05T05:17:05.209Z,1019.11
2016-05-05T05:18:05.196Z,1019.06
2016-05-05T05:19:05.167Z,1019.09
2016-05-05T05:20:05.155Z,1019.09
2016-05-05T05:21:05.142Z,1019.08
2016-05-05T05:22:05.114Z,1019.11
2016-05-05T05:23:05.100Z,1019.11
2016-05-05T05:24:05.166Z,1019.08
2016-05-05T05:25:05.059Z,1019.09
2016-05-05T05:26:05.046Z,1019.09
2016-05-05T05:27:05.033Z,1019.04
2016-05-05T05:28:05.019Z,1019.08
2016-05-05T05:29:04.991Z,1019.06
2016-05-05T05:30:04.979Z,1019.07
2016-05-05T05:31:04.966Z,1019.06
2016-05-05T05:32:04.952Z,1019.06
2016-05-05T05:33:04.924Z,1019.05
2016-05-05T05:34:04.911Z,1018.99
2016-05-05T05:35:04.898Z,1019.01
2016-05-05T05:36:04.870Z,1019.09
2016-05-05T05:37:04.857Z,1019.08
2016-05-05T05:38:04.843Z,1019.09
2016-05-05T05:39:04.971Z,1019.08
2016-05-05T05:40:04.802Z,1019.09
2016-05-05T05:41:04.790Z,1019.1
2016-05-05T05:42:04.776Z,1019.1
2016-05-05T05:43:04.748Z,1019.13
2016-05-05T05:44:04.734Z,1019.18
2016-05-05T05:45:04.722Z,1019.14
2016-05-05T05:46:04.709Z,1019.14
2016-05-05T05:47:04.681Z,1019.15
2016-05-05T05:48:04.667Z,1019.17
2016-05-05T05:49:04.655Z,1019.19
2016-05-05T05:50:04.642Z,1019.2
2016-05-05T05:51:04.628Z,1019.18
2016-05-05T05:52:04.600Z,1019.18
2016-05-05T05:53:04.587Z,1019.2
2016-05-05T05:54:04.793Z,1019.12
2016-05-05T05:55:04.546Z,1019.17
2016-05-05T05:56:04.533Z,1019.17
2016-05-05T05:57:04.519Z,1019.17
2016-05-05T05:58:04.507Z,1019.15
2016-05-05T05:59:04.478Z,1019.12
2016-05-05T06:00:04.466Z,1019.16
2016-05-05T06:01:04.452Z,1019.14
2016-05-05T06:02:04.440Z,1019.15
2016-05-05T06:03:04.410Z,1019.16
2016-05-05T06:04:04.398Z,1019.19
2016-05-05T06:05:04.385Z,1019.13
2016-05-05T06:06:04.372Z,1019.13
2016-05-05T06:07:04.360Z,1019.16
2016-05-05T06:08:04.331Z,1019.16
2016-05-05T06:09:04.661Z,1019.16
2016-05-05T06:10:04.304Z,1019.17
2016-05-05T06:11:04.293Z,1019.14
2016-05-05T06:12:04.279Z,1019.14
2016-05-05T06:13:04.265Z,1019.13
2016-05-05T06:14:04.237Z,1019.15
2016-05-05T06:15:04.225Z,1019.12
2016-05-05T06:16:04.211Z,1019.11
2016-05-05T06:17:04.198Z,1019.13
2016-05-05T06:18:04.170Z,1019.09
2016-05-05T06:19:04.156Z,1019.12
2016-05-05T06:20:04.144Z,1019.09
2016-05-05T06:21:04.131Z,1019.09
2016-05-05T06:22:04.119Z,1019.11
2016-05-05T06:23:04.224Z,1019.05
2016-05-05T06:24:04.399Z,1019.06
2016-05-05T06:25:04.058Z,1019.08
2016-05-05T06:26:04.045Z,1019.08
2016-05-05T06:27:04.033Z,1019.06
2016-05-05T06:28:04.019Z,1019.11
2016-05-05T06:29:03.990Z,1019.08
2016-05-05T06:30:03.977Z,1019.05
2016-05-05T06:31:03.965Z,1019.09
2016-05-05T06:32:03.952Z,1019.08
2016-05-05T06:33:03.940Z,1019.08
2016-05-05T06:34:03.910Z,1019.1
2016-05-05T06:35:03.898Z,1019.09
2016-05-05T06:36:03.884Z,1019.12
2016-05-05T06:37:03.871Z,1019.1
2016-05-05T06:38:03.859Z,1019.1
2016-05-05T06:39:04.236Z,1019.15
2016-05-05T06:40:03.817Z,1019.1
2016-05-05T06:41:03.820Z,1019.08
2016-05-05T06:42:03.853Z,1019.11
2016-05-05T06:43:03.842Z,1019.07
2016-05-05T06:44:03.765Z,1019.07
2016-05-05T06:45:03.753Z,1019.11
2016-05-05T06:46:03.724Z,1019.08
2016-05-05T06:47:03.711Z,1019.11
2016-05-05T06:48:03.698Z,1019.06
2016-05-05T06:49:03.685Z,1019.05
2016-05-05T06:50:03.672Z,1019.01
2016-05-05T06:51:03.659Z,1019.01
2016-05-05T06:52:03.646Z,1019.01
2016-05-05T06:53:03.633Z,1019.03
2016-05-05T06:54:03.621Z,1018.98
2016-05-05T06:55:03.592Z,1019.03
2016-05-05T06:56:03.579Z,1019.03
2016-05-05T06:57:03.566Z,1019.01
2016-05-05T06:58:03.553Z,1019.01
2016-05-05T06:59:03.540Z,1018.99
2016-05-05T07:00:03.527Z,1018.99
2016-05-05T07:01:03.514Z,1018.96
2016-05-05T07:02:03.502Z,1018.98
2016-05-05T07:03:03.488Z,1018.96
2016-05-05T07:04:03.460Z,1018.98
2016-05-05T07:05:03.447Z,1018.95
2016-05-05T07:06:03.450Z,1018.95
2016-05-05T07:07:03.421Z,1018.91
2016-05-05T07:08:03.409Z,1018.93
2016-05-05T07:09:03.395Z,1018.93
2016-05-05T07:10:03.382Z,1018.93
2016-05-05T07:11:03.370Z,1018.92
2016-05-05T07:12:03.356Z,1018.94
2016-05-05T07:13:03.343Z,1018.92
2016-05-05T07:14:03.315Z,1018.92
2016-05-05T07:15:03.303Z,1018.93
2016-05-05T07:16:03.289Z,1018.9
2016-05-05T07:17:03.275Z,1018.91
2016-05-05T07:18:03.264Z,1018.95
2016-05-05T07:19:03.250Z,1018.9
2016-05-05T07:20:03.237Z,1018.9
2016-05-05T07:21:03.224Z,1018.89
2016-05-05T07:22:03.211Z,1018.91
2016-05-05T07:23:03.199Z,1018.87
2016-05-05T07:24:03.169Z,1018.85
2016-05-05T07:25:03.172Z,1018.84
2016-05-05T07:26:03.144Z,1018.78
2016-05-05T07:27:03.194Z,1018.79
2016-05-05T07:28:03.118Z,1018.8
2016-05-05T07:29:03.105Z,1018.79
2016-05-05T07:30:03.093Z,1018.79
2016-05-05T07:31:03.080Z,1018.77
2016-05-05T07:32:03.066Z,1018.82
2016-05-05T07:33:03.054Z,1018.77
2016-05-05T07:34:03.041Z,1018.8
2016-05-05T07:35:03.027Z,1018.77
2016-05-05T07:36:03.015Z,1018.79
2016-05-05T07:37:03.002Z,1018.8
2016-05-05T07:38:02.989Z,1018.7
2016-05-05T07:39:02.976Z,1018.74
2016-05-05T07:40:02.962Z,1018.73
2016-05-05T07:41:02.951Z,1018.74
2016-05-05T07:42:02.937Z,1018.71
2016-05-05T07:43:02.923Z,1018.73
2016-05-05T07:44:02.912Z,1018.71
2016-05-05T07:45:02.898Z,1018.67
2016-05-05T07:46:02.886Z,1018.68
2016-05-05T07:47:02.872Z,1018.65
2016-05-05T07:48:02.859Z,1018.67
2016-05-05T07:49:02.847Z,1018.68
2016-05-05T07:50:02.833Z,1018.68
2016-05-05T07:51:02.821Z,1018.62
2016-05-05T07:52:02.808Z,1018.62
2016-05-05T07:53:02.795Z,1018.7
2016-05-05T07:54:02.782Z,1018.64
2016-05-05T07:55:03.285Z,1018.67
2016-05-05T07:56:02.755Z,1018.64
2016-05-05T07:57:02.743Z,1018.65
2016-05-05T07:58:02.730Z,1018.61
2016-05-05T07:59:02.717Z,1018.57
2016-05-05T08:00:02.705Z,1018.57
2016-05-05T08:01:02.691Z,1018.6
2016-05-05T08:02:02.679Z,1018.55
2016-05-05T08:03:02.665Z,1018.54
2016-05-05T08:04:02.652Z,1018.55
2016-05-05T08:05:02.640Z,1018.56
2016-05-05T08:06:02.627Z,1018.57
2016-05-05T08:07:02.614Z,1018.57
2016-05-05T08:08:02.616Z,1018.52
2016-05-05T08:09:02.650Z,1018.59
2016-05-05T08:10:02.591Z,1018.63
2016-05-05T08:11:02.578Z,1018.64
2016-05-05T08:12:02.565Z,1018.66
2016-05-05T08:13:02.551Z,1018.59
2016-05-05T08:14:02.539Z,1018.62
2016-05-05T08:15:02.542Z,1018.59
2016-05-05T08:16:02.529Z,1018.6
2016-05-05T08:17:02.531Z,1018.61
2016-05-05T08:18:02.517Z,1018.66
2016-05-05T08:19:02.506Z,1018.66
2016-05-05T08:20:02.508Z,1018.62
2016-05-05T08:21:02.511Z,1018.62
2016-05-05T08:22:02.498Z,1018.65
2016-05-05T08:23:02.486Z,1018.61
2016-05-05T08:24:02.488Z,1018.61
2016-05-05T08:25:02.475Z,1018.57
2016-05-05T08:26:02.477Z,1018.62
2016-05-05T08:27:02.464Z,1018.63
2016-05-05T08:28:02.483Z,1018.63
2016-05-05T08:29:02.470Z,1018.63
2016-05-05T08:30:02.457Z,1018.56
2016-05-05T08:31:02.460Z,1018.59
2016-05-05T08:32:02.666Z,1018.58
2016-05-05T08:33:02.449Z,1018.62
2016-05-05T08:34:02.452Z,1018.56
2016-05-05T08:35:02.455Z,1018.57
2016-05-05T08:36:02.457Z,1018.6
2016-05-05T08:37:02.444Z,1018.62
2016-05-05T08:38:02.447Z,1018.59
2016-05-05T08:39:02.449Z,1018.59
2016-05-05T08:40:02.437Z,1018.61
2016-05-05T08:41:02.454Z,1018.58
2016-05-05T08:42:02.442Z,1018.63
2016-05-05T08:43:02.445Z,1018.59
2016-05-05T08:44:02.448Z,1018.55
2016-05-05T08:45:02.450Z,1018.51
2016-05-05T08:46:02.438Z,1018.49
2016-05-05T08:47:02.456Z,1018.54
2016-05-05T08:48:02.442Z,1018.52
2016-05-05T08:49:02.445Z,1018.53
2016-05-05T08:50:02.433Z,1018.49
2016-05-05T08:51:02.436Z,1018.46
2016-05-05T08:52:02.438Z,1018.47
2016-05-05T08:53:02.441Z,1018.46
2016-05-05T08:54:02.444Z,1018.49
2016-05-05T08:55:02.430Z,1018.44
2016-05-05T08:56:02.433Z,1018.5
2016-05-05T08:57:02.436Z,1018.48
2016-05-05T08:58:02.439Z,1018.45
2016-05-05T08:59:02.441Z,1018.46
2016-05-05T09:00:02.427Z,1018.46
2016-05-05T09:01:02.431Z,1018.42
2016-05-05T09:02:02.434Z,1018.44
2016-05-05T09:03:02.435Z,1018.32
2016-05-05T09:04:02.424Z,1018.35
2016-05-05T09:05:02.426Z,1018.35
2016-05-05T09:06:02.429Z,1018.41
2016-05-05T09:07:02.431Z,1018.45
2016-05-05T09:08:02.418Z,1018.47
2016-05-05T09:09:02.421Z,1018.43
2016-05-05T09:10:02.424Z,1018.41
2016-05-05T09:11:02.410Z,1018.46
2016-05-05T09:12:02.413Z,1018.39
2016-05-05T09:13:02.416Z,1018.33
2016-05-05T09:14:02.419Z,1018.33
2016-05-05T09:15:02.421Z,1018.32
2016-05-05T09:16:02.409Z,1018.37
2016-05-05T09:17:02.412Z,1018.52
2016-05-05T09:18:02.399Z,1018.62
2016-05-05T09:19:02.400Z,1018.42
2016-05-05T09:20:02.404Z,1018.4
2016-05-05T09:21:02.391Z,1018.49
2016-05-05T09:22:02.394Z,1018.56
2016-05-05T09:23:02.397Z,1018.67
2016-05-05T09:24:02.383Z,1018.57
2016-05-05T09:25:02.386Z,1018.5
2016-05-05T09:26:02.388Z,1018.49
2016-05-05T09:27:02.392Z,1018.3
2016-05-05T09:28:02.378Z,1018.45
2016-05-05T09:29:02.381Z,1018.53
2016-05-05T09:30:02.370Z,1018.48
2016-05-05T09:31:02.362Z,1018.32
2016-05-05T09:32:02.364Z,1018.21
2016-05-05T09:33:02.584Z,1018.27
2016-05-05T09:34:02.372Z,1018.27
2016-05-05T09:35:02.358Z,1018.41
2016-05-05T09:36:02.361Z,1018.42
2016-05-05T09:37:02.364Z,1018.32
2016-05-05T09:38:02.366Z,1018.14
2016-05-05T09:39:02.353Z,1018.11
2016-05-05T09:40:02.357Z,1018.18
2016-05-05T09:41:02.343Z,1018.14
2016-05-05T09:42:02.346Z,1018.08
2016-05-05T09:43:02.343Z,1018.13
2016-05-05T09:44:02.346Z,1018.25
2016-05-05T09:45:02.332Z,1018.22
2016-05-05T09:46:02.334Z,1018.39
2016-05-05T09:47:02.901Z,1018.38
2016-05-05T09:48:02.637Z,1018.32
2016-05-05T09:49:02.328Z,1018.4
2016-05-05T09:50:02.331Z,1018.13
2016-05-05T09:51:02.317Z,1018.09
2016-05-05T09:52:02.320Z,1018.11
2016-05-05T09:53:02.308Z,1018.08
2016-05-05T09:54:02.310Z,1018.1
2016-05-05T09:55:02.313Z,1017.98
2016-05-05T09:56:02.300Z,1018.08
2016-05-05T09:57:02.302Z,1018.01
2016-05-05T09:58:02.305Z,1017.98
2016-05-05T09:59:02.308Z,1018.02
2016-05-05T10:00:02.310Z,1018.1
2016-05-05T10:01:02.297Z,1018.13
2016-05-05T10:02:02.300Z,1018
2016-05-05T10:03:02.287Z,1017.94
2016-05-05T10:04:02.274Z,1017.92
2016-05-05T10:05:02.276Z,1017.87
2016-05-05T10:06:02.279Z,1017.88
2016-05-05T10:07:02.282Z,1017.84
2016-05-05T10:08:02.269Z,1017.78
2016-05-05T10:09:02.271Z,1017.77
2016-05-05T10:10:03.290Z,1017.76
2016-05-05T10:11:02.262Z,1017.8
2016-05-05T10:12:02.264Z,1017.78
2016-05-05T10:13:02.268Z,1017.75
2016-05-05T10:14:02.270Z,1017.8
2016-05-05T10:15:02.272Z,1017.8
2016-05-05T10:16:02.276Z,1017.78
2016-05-05T10:17:02.262Z,1017.76
2016-05-05T10:18:02.264Z,1017.76
2016-05-05T10:19:02.268Z,1017.71
2016-05-05T10:20:02.270Z,1017.75
2016-05-05T10:21:02.272Z,1017.77
2016-05-05T10:22:02.276Z,1017.83
2016-05-05T10:23:02.278Z,1017.82
2016-05-05T10:24:02.281Z,1017.9
2016-05-05T10:25:02.283Z,1017.97
2016-05-05T10:26:02.286Z,1017.88
2016-05-05T10:27:02.289Z,1017.91
2016-05-05T10:28:02.292Z,1017.9
2016-05-05T10:29:02.294Z,1017.89
2016-05-05T10:30:02.297Z,1017.83
2016-05-05T10:31:02.299Z,1017.83
2016-05-05T10:32:02.505Z,1017.86
2016-05-05T10:33:02.306Z,1017.77
2016-05-05T10:34:02.308Z,1017.77
2016-05-05T10:35:02.311Z,1017.74
2016-05-05T10:36:02.313Z,1017.69
2016-05-05T10:37:02.316Z,1017.71
2016-05-05T10:38:02.319Z,1017.72
2016-05-05T10:39:02.321Z,1017.7
2016-05-05T10:40:02.324Z,1017.67
2016-05-05T10:41:02.326Z,1017.61
2016-05-05T10:42:02.329Z,1017.59
2016-05-05T10:43:02.332Z,1017.57
2016-05-05T10:44:02.335Z,1017.61
2016-05-05T10:45:02.337Z,1017.61
2016-05-05T10:46:02.340Z,1017.51
2016-05-05T10:47:02.343Z,1017.48
2016-05-05T10:48:02.362Z,1017.46
2016-05-05T10:49:02.348Z,1017.45
2016-05-05T10:50:02.351Z,1017.39
2016-05-05T10:51:02.353Z,1017.39
2016-05-05T10:52:02.356Z,1017.36
2016-05-05T10:53:02.359Z,1017.31
2016-05-05T10:54:02.377Z,1017.33
2016-05-05T10:55:02.427Z,1017.36
2016-05-05T10:56:02.383Z,1017.33
2016-05-05T10:57:02.386Z,1017.32
2016-05-05T10:58:02.388Z,1017.27
2016-05-05T10:59:02.423Z,1017.32
2016-05-05T11:00:02.469Z,1017.33
2016-05-05T11:01:02.515Z,1017.29
2016-05-05T11:02:02.577Z,1017.25
2016-05-05T11:03:02.608Z,1017.28
2016-05-05T11:04:02.634Z,1017.23
2016-05-05T11:05:02.653Z,1017.22
2016-05-05T11:06:02.671Z,1017.19
2016-05-05T11:07:02.690Z,1017.18
2016-05-05T11:08:02.723Z,1017.12
2016-05-05T11:09:02.735Z,1017.16
2016-05-05T11:10:02.743Z,1017.15
2016-05-05T11:11:02.751Z,1017.08
2016-05-05T11:12:02.759Z,1017.03
2016-05-05T11:13:02.767Z,1017
2016-05-05T11:14:02.772Z,1016.98
2016-05-05T11:15:02.777Z,1016.96
2016-05-05T11:16:02.781Z,1016.92
2016-05-05T11:17:02.786Z,1016.95
2016-05-05T11:18:02.790Z,1016.92
2016-05-05T11:19:02.795Z,1016.89
2016-05-05T11:20:02.798Z,1016.86
2016-05-05T11:21:02.817Z,1016.78
2016-05-05T11:22:02.821Z,1016.84
2016-05-05T11:23:02.824Z,1016.83
2016-05-05T11:24:02.824Z,1016.88
2016-05-05T11:25:02.827Z,1016.8
2016-05-05T11:26:02.830Z,1016.82
2016-05-05T11:27:02.833Z,1016.82
2016-05-05T11:28:02.836Z,1016.8
2016-05-05T11:29:02.839Z,1016.82
2016-05-05T11:30:02.858Z,1016.76
2016-05-05T11:31:02.860Z,1016.79
2016-05-05T11:32:02.864Z,1016.71
2016-05-05T11:33:02.882Z,1016.7
2016-05-05T11:34:02.931Z,1016.64
2016-05-05T11:35:02.871Z,1016.69
2016-05-05T11:36:02.874Z,1016.69
2016-05-05T11:37:02.892Z,1016.69
2016-05-05T11:38:02.879Z,1016.64
2016-05-05T11:39:02.897Z,1016.65
2016-05-05T11:40:02.901Z,1016.61
2016-05-05T11:41:02.903Z,1016.64
2016-05-05T11:42:02.906Z,1016.63
2016-05-05T11:43:02.908Z,1016.59
2016-05-05T11:44:02.911Z,1016.53
2016-05-05T11:45:02.913Z,1016.57
2016-05-05T11:46:02.917Z,1016.56
2016-05-05T11:47:02.935Z,1016.47
2016-05-05T11:48:02.938Z,1016.48
2016-05-05T11:49:02.940Z,1016.47
2016-05-05T11:50:02.943Z,1016.45
2016-05-05T11:51:02.946Z,1016.46
2016-05-05T11:52:02.948Z,1016.43
2016-05-05T11:53:02.951Z,1016.4
2016-05-05T11:54:02.954Z,1016.41
2016-05-05T11:55:02.957Z,1016.32
2016-05-05T11:56:02.960Z,1016.37
2016-05-05T11:57:02.978Z,1016.34
2016-05-05T11:58:02.981Z,1016.31
2016-05-05T11:59:02.983Z,1016.31
2016-05-05T12:00:02.986Z,1016.31
2016-05-05T12:01:02.988Z,1016.32
2016-05-05T12:02:02.991Z,1016.25
2016-05-05T12:03:02.994Z,1016.25
2016-05-05T12:04:03.012Z,1016.23
2016-05-05T12:05:03.015Z,1016.25
2016-05-05T12:06:03.017Z,1016.25
2016-05-05T12:07:03.020Z,1016.27
2016-05-05T12:08:03.038Z,1016.23